Terminal Aerodrome Forecast
Issued by NWS

Home | Current Version | Previous Version | Text Only | Print | Product List | Glossary On
Versions: 1 2 3 4 5 6 7 8 9 10 11 12 13 14
000
FTUS45 KFGZ 202300
TAFSEZ
TAF
KSEZ 202330Z 2100/2124 VRB05KT P6SM SCT090
     FM210400 04010KT P6SM FEW250
     FM211600 VRB05KT P6SM FEW100=

USA.gov is the U.S. government's official web portal to all federal, state and local government web resources and services.